sensor_id;sensor_type;location;lat;lon;timestamp;P1;durP1;ratioP1;P2;durP2;ratioP2
49366;SDS011;35245;52.026;8.540;2024-03-07T00:00:28;24.30;;;17.35;;
49366;SDS011;35245;52.026;8.540;2024-03-07T00:02:57;24.63;;;17.80;;
49366;SDS011;35245;52.026;8.540;2024-03-07T00:05:24;27.15;;;17.13;;
49366;SDS011;35245;52.026;8.540;2024-03-07T00:07:51;24.98;;;17.40;;
49366;SDS011;35245;52.026;8.540;2024-03-07T00:10:21;22.23;;;15.13;;
49366;SDS011;35245;52.026;8.540;2024-03-07T00:12:48;23.80;;;17.15;;
49366;SDS011;35245;52.026;8.540;2024-03-07T00:15:15;22.88;;;16.73;;
49366;SDS011;35245;52.026;8.540;2024-03-07T00:17:43;23.52;;;16.33;;
49366;SDS011;35245;52.026;8.540;2024-03-07T00:20:11;21.88;;;16.05;;
49366;SDS011;35245;52.026;8.540;2024-03-07T00:22:40;22.63;;;16.58;;
49366;SDS011;35245;52.026;8.540;2024-03-07T00:25:08;24.45;;;15.93;;
49366;SDS011;35245;52.026;8.540;2024-03-07T00:27:37;24.67;;;16.05;;
49366;SDS011;35245;52.026;8.540;2024-03-07T00:30:05;25.15;;;17.35;;
49366;SDS011;35245;52.026;8.540;2024-03-07T00:32:34;26.63;;;17.48;;
49366;SDS011;35245;52.026;8.540;2024-03-07T00:35:04;24.23;;;15.95;;
49366;SDS011;35245;52.026;8.540;2024-03-07T00:37:33;22.83;;;16.60;;
49366;SDS011;35245;52.026;8.540;2024-03-07T00:40:00;24.05;;;15.70;;
49366;SDS011;35245;52.026;8.540;2024-03-07T00:42:28;29.77;;;18.42;;
49366;SDS011;35245;52.026;8.540;2024-03-07T00:44:56;24.67;;;16.80;;
49366;SDS011;35245;52.026;8.540;2024-03-07T00:47:23;23.58;;;17.05;;
49366;SDS011;35245;52.026;8.540;2024-03-07T00:49:50;25.30;;;17.92;;
49366;SDS011;35245;52.026;8.540;2024-03-07T00:52:19;24.05;;;17.30;;
49366;SDS011;35245;52.026;8.540;2024-03-07T00:54:46;21.73;;;15.85;;
49366;SDS011;35245;52.026;8.540;2024-03-07T00:57:13;23.52;;;16.13;;
49366;SDS011;35245;52.026;8.540;2024-03-07T00:59:40;26.05;;;17.65;;
49366;SDS011;35245;52.026;8.540;2024-03-07T01:02:09;24.90;;;17.13;;
49366;SDS011;35245;52.026;8.540;2024-03-07T01:04:36;23.92;;;16.55;;
49366;SDS011;35245;52.026;8.540;2024-03-07T01:07:03;25.35;;;16.52;;
49366;SDS011;35245;52.026;8.540;2024-03-07T01:09:30;25.35;;;17.73;;
49366;SDS011;35245;52.026;8.540;2024-03-07T01:11:58;26.15;;;17.83;;
49366;SDS011;35245;52.026;8.540;2024-03-07T01:14:25;26.63;;;18.58;;
49366;SDS011;35245;52.026;8.540;2024-03-07T01:16:52;25.63;;;17.77;;
49366;SDS011;35245;52.026;8.540;2024-03-07T01:19:21;24.95;;;17.42;;
49366;SDS011;35245;52.026;8.540;2024-03-07T01:21:49;27.92;;;18.38;;
49366;SDS011;35245;52.026;8.540;2024-03-07T01:24:16;25.42;;;17.75;;
49366;SDS011;35245;52.026;8.540;2024-03-07T01:26:45;25.33;;;16.60;;
49366;SDS011;35245;52.026;8.540;2024-03-07T01:29:12;23.88;;;17.05;;
49366;SDS011;35245;52.026;8.540;2024-03-07T01:31:40;26.73;;;17.38;;
49366;SDS011;35245;52.026;8.540;2024-03-07T01:34:07;23.77;;;17.13;;
49366;SDS011;35245;52.026;8.540;2024-03-07T01:36:36;23.50;;;16.30;;
49366;SDS011;35245;52.026;8.540;2024-03-07T01:39:03;26.17;;;16.90;;
49366;SDS011;35245;52.026;8.540;2024-03-07T01:41:31;22.80;;;17.13;;
49366;SDS011;35245;52.026;8.540;2024-03-07T01:43:59;26.67;;;18.42;;
49366;SDS011;35245;52.026;8.540;2024-03-07T01:46:27;27.00;;;18.30;;
49366;SDS011;35245;52.026;8.540;2024-03-07T01:48:55;24.02;;;16.42;;
49366;SDS011;35245;52.026;8.540;2024-03-07T01:51:23;28.80;;;18.40;;
49366;SDS011;35245;52.026;8.540;2024-03-07T01:53:53;25.15;;;17.55;;
49366;SDS011;35245;52.026;8.540;2024-03-07T01:56:21;25.88;;;18.13;;
49366;SDS011;35245;52.026;8.540;2024-03-07T01:58:48;26.17;;;18.10;;
49366;SDS011;35245;52.026;8.540;2024-03-07T02:01:18;27.08;;;18.17;;
49366;SDS011;35245;52.026;8.540;2024-03-07T02:03:45;24.77;;;17.58;;
49366;SDS011;35245;52.026;8.540;2024-03-07T02:06:12;25.55;;;17.70;;
49366;SDS011;35245;52.026;8.540;2024-03-07T02:08:40;22.98;;;17.15;;
49366;SDS011;35245;52.026;8.540;2024-03-07T02:11:09;24.60;;;17.17;;
49366;SDS011;35245;52.026;8.540;2024-03-07T02:13:37;29.80;;;18.23;;
49366;SDS011;35245;52.026;8.540;2024-03-07T02:16:04;27.92;;;17.95;;
49366;SDS011;35245;52.026;8.540;2024-03-07T02:18:32;26.67;;;17.88;;
49366;SDS011;35245;52.026;8.540;2024-03-07T02:21:06;29.48;;;18.98;;
49366;SDS011;35245;52.026;8.540;2024-03-07T02:23:35;29.85;;;19.92;;
49366;SDS011;35245;52.026;8.540;2024-03-07T02:26:03;30.38;;;20.52;;
49366;SDS011;35245;52.026;8.540;2024-03-07T02:28:30;32.88;;;21.35;;
49366;SDS011;35245;52.026;8.540;2024-03-07T02:30:57;29.15;;;19.98;;
49366;SDS011;35245;52.026;8.540;2024-03-07T02:33:24;28.40;;;20.13;;
49366;SDS011;35245;52.026;8.540;2024-03-07T02:35:51;28.33;;;19.58;;
49366;SDS011;35245;52.026;8.540;2024-03-07T02:38:20;27.45;;;19.55;;
49366;SDS011;35245;52.026;8.540;2024-03-07T02:40:47;27.77;;;19.67;;
49366;SDS011;35245;52.026;8.540;2024-03-07T02:43:14;30.70;;;20.38;;
49366;SDS011;35245;52.026;8.540;2024-03-07T02:45:41;29.63;;;20.50;;
49366;SDS011;35245;52.026;8.540;2024-03-07T02:48:08;27.48;;;19.95;;
49366;SDS011;35245;52.026;8.540;2024-03-07T02:50:35;29.17;;;20.02;;
49366;SDS011;35245;52.026;8.540;2024-03-07T02:53:04;27.25;;;19.10;;
49366;SDS011;35245;52.026;8.540;2024-03-07T02:55:32;31.73;;;21.25;;
49366;SDS011;35245;52.026;8.540;2024-03-07T02:57:59;30.95;;;21.23;;
49366;SDS011;35245;52.026;8.540;2024-03-07T03:00:27;34.83;;;21.33;;
49366;SDS011;35245;52.026;8.540;2024-03-07T03:02:55;29.05;;;19.95;;
49366;SDS011;35245;52.026;8.540;2024-03-07T03:05:22;31.83;;;21.55;;
49366;SDS011;35245;52.026;8.540;2024-03-07T03:07:49;29.55;;;20.85;;
49366;SDS011;35245;52.026;8.540;2024-03-07T03:10:20;31.67;;;22.30;;
49366;SDS011;35245;52.026;8.540;2024-03-07T03:12:52;31.85;;;21.05;;
49366;SDS011;35245;52.026;8.540;2024-03-07T03:15:21;32.08;;;23.02;;
49366;SDS011;35245;52.026;8.540;2024-03-07T03:17:48;30.73;;;21.05;;
49366;SDS011;35245;52.026;8.540;2024-03-07T03:20:17;30.20;;;21.50;;
49366;SDS011;35245;52.026;8.540;2024-03-07T03:22:53;28.63;;;20.42;;
49366;SDS011;35245;52.026;8.540;2024-03-07T03:25:21;31.60;;;22.35;;
49366;SDS011;35245;52.026;8.540;2024-03-07T03:27:48;33.05;;;22.75;;
49366;SDS011;35245;52.026;8.540;2024-03-07T03:30:17;29.02;;;21.38;;
49366;SDS011;35245;52.026;8.540;2024-03-07T03:32:45;29.50;;;21.02;;
49366;SDS011;35245;52.026;8.540;2024-03-07T03:35:13;31.20;;;22.58;;
49366;SDS011;35245;52.026;8.540;2024-03-07T03:37:41;32.28;;;21.50;;
49366;SDS011;35245;52.026;8.540;2024-03-07T03:40:09;29.98;;;21.30;;
49366;SDS011;35245;52.026;8.540;2024-03-07T03:42:38;29.92;;;21.63;;
49366;SDS011;35245;52.026;8.540;2024-03-07T03:45:07;30.45;;;21.58;;
49366;SDS011;35245;52.026;8.540;2024-03-07T03:47:41;32.67;;;22.90;;
49366;SDS011;35245;52.026;8.540;2024-03-07T03:50:09;35.58;;;22.60;;
49366;SDS011;35245;52.026;8.540;2024-03-07T03:52:39;31.17;;;22.70;;
49366;SDS011;35245;52.026;8.540;2024-03-07T03:55:07;31.10;;;21.85;;
49366;SDS011;35245;52.026;8.540;2024-03-07T03:57:37;30.77;;;21.27;;
49366;SDS011;35245;52.026;8.540;2024-03-07T04:00:06;30.17;;;21.92;;
49366;SDS011;35245;52.026;8.540;2024-03-07T04:02:37;32.17;;;22.13;;
49366;SDS011;35245;52.026;8.540;2024-03-07T04:05:08;35.13;;;23.25;;
49366;SDS011;35245;52.026;8.540;2024-03-07T04:07:36;29.25;;;20.23;;
49366;SDS011;35245;52.026;8.540;2024-03-07T04:10:04;31.90;;;22.85;;
49366;SDS011;35245;52.026;8.540;2024-03-07T04:12:33;36.80;;;22.63;;
49366;SDS011;35245;52.026;8.540;2024-03-07T04:15:02;30.90;;;21.23;;
49366;SDS011;35245;52.026;8.540;2024-03-07T04:17:30;33.95;;;22.15;;
49366;SDS011;35245;52.026;8.540;2024-03-07T04:20:00;32.28;;;21.58;;
49366;SDS011;35245;52.026;8.540;2024-03-07T04:22:27;33.40;;;22.05;;
49366;SDS011;35245;52.026;8.540;2024-03-07T04:24:54;32.45;;;22.73;;
49366;SDS011;35245;52.026;8.540;2024-03-07T04:27:21;29.17;;;20.67;;
49366;SDS011;35245;52.026;8.540;2024-03-07T04:29:48;30.90;;;21.85;;
49366;SDS011;35245;52.026;8.540;2024-03-07T04:32:15;35.58;;;23.25;;
49366;SDS011;35245;52.026;8.540;2024-03-07T04:34:43;33.65;;;23.20;;
49366;SDS011;35245;52.026;8.540;2024-03-07T04:37:11;38.28;;;23.98;;
49366;SDS011;35245;52.026;8.540;2024-03-07T04:39:39;33.40;;;24.33;;
49366;SDS011;35245;52.026;8.540;2024-03-07T04:42:07;31.48;;;21.70;;
49366;SDS011;35245;52.026;8.540;2024-03-07T04:44:35;37.25;;;24.63;;
49366;SDS011;35245;52.026;8.540;2024-03-07T04:47:04;34.47;;;23.55;;
49366;SDS011;35245;52.026;8.540;2024-03-07T04:49:33;32.13;;;22.20;;
49366;SDS011;35245;52.026;8.540;2024-03-07T04:52:01;33.75;;;23.38;;
49366;SDS011;35245;52.026;8.540;2024-03-07T04:54:31;36.28;;;24.35;;
49366;SDS011;35245;52.026;8.540;2024-03-07T04:56:59;34.90;;;23.55;;
49366;SDS011;35245;52.026;8.540;2024-03-07T04:59:26;36.58;;;25.23;;
49366;SDS011;35245;52.026;8.540;2024-03-07T05:01:54;36.65;;;24.63;;
49366;SDS011;35245;52.026;8.540;2024-03-07T05:04:21;34.05;;;22.38;;
49366;SDS011;35245;52.026;8.540;2024-03-07T05:06:54;38.65;;;24.55;;
49366;SDS011;35245;52.026;8.540;2024-03-07T05:09:22;41.10;;;24.05;;
49366;SDS011;35245;52.026;8.540;2024-03-07T05:11:52;33.00;;;22.55;;
49366;SDS011;35245;52.026;8.540;2024-03-07T05:14:20;33.17;;;21.83;;
49366;SDS011;35245;52.026;8.540;2024-03-07T05:16:47;34.72;;;22.90;;
49366;SDS011;35245;52.026;8.540;2024-03-07T05:21:57;32.25;;;21.83;;
49366;SDS011;35245;52.026;8.540;2024-03-07T05:24:24;31.52;;;23.27;;
49366;SDS011;35245;52.026;8.540;2024-03-07T05:26:53;30.55;;;22.55;;
49366;SDS011;35245;52.026;8.540;2024-03-07T05:29:20;33.55;;;22.98;;
49366;SDS011;35245;52.026;8.540;2024-03-07T05:31:47;31.42;;;22.05;;
49366;SDS011;35245;52.026;8.540;2024-03-07T05:34:14;33.40;;;23.73;;
49366;SDS011;35245;52.026;8.540;2024-03-07T05:36:44;34.00;;;23.60;;
49366;SDS011;35245;52.026;8.540;2024-03-07T05:39:12;31.90;;;23.23;;
49366;SDS011;35245;52.026;8.540;2024-03-07T05:41:40;32.20;;;22.63;;
49366;SDS011;35245;52.026;8.540;2024-03-07T05:44:12;34.30;;;24.05;;
49366;SDS011;35245;52.026;8.540;2024-03-07T05:46:40;33.38;;;24.00;;
49366;SDS011;35245;52.026;8.540;2024-03-07T05:49:11;34.33;;;23.02;;
49366;SDS011;35245;52.026;8.540;2024-03-07T05:51:37;33.47;;;22.90;;
49366;SDS011;35245;52.026;8.540;2024-03-07T05:54:07;32.53;;;22.10;;
49366;SDS011;35245;52.026;8.540;2024-03-07T05:56:34;34.88;;;23.58;;
49366;SDS011;35245;52.026;8.540;2024-03-07T05:59:01;34.33;;;23.30;;
49366;SDS011;35245;52.026;8.540;2024-03-07T06:01:31;33.15;;;23.13;;
49366;SDS011;35245;52.026;8.540;2024-03-07T06:03:59;37.47;;;25.48;;
49366;SDS011;35245;52.026;8.540;2024-03-07T06:06:27;31.40;;;23.52;;
49366;SDS011;35245;52.026;8.540;2024-03-07T06:08:57;33.00;;;23.52;;
49366;SDS011;35245;52.026;8.540;2024-03-07T06:11:24;37.05;;;23.77;;
49366;SDS011;35245;52.026;8.540;2024-03-07T06:13:51;32.28;;;22.95;;
49366;SDS011;35245;52.026;8.540;2024-03-07T06:16:18;37.08;;;25.48;;
49366;SDS011;35245;52.026;8.540;2024-03-07T06:18:46;34.67;;;24.38;;
49366;SDS011;35245;52.026;8.540;2024-03-07T06:21:14;32.80;;;22.65;;
49366;SDS011;35245;52.026;8.540;2024-03-07T06:23:41;34.67;;;23.65;;
49366;SDS011;35245;52.026;8.540;2024-03-07T06:26:12;30.50;;;20.95;;
49366;SDS011;35245;52.026;8.540;2024-03-07T06:28:42;32.80;;;21.95;;
49366;SDS011;35245;52.026;8.540;2024-03-07T06:31:10;36.33;;;24.35;;
49366;SDS011;35245;52.026;8.540;2024-03-07T06:33:37;36.92;;;23.48;;
49366;SDS011;35245;52.026;8.540;2024-03-07T06:36:06;33.78;;;22.55;;
49366;SDS011;35245;52.026;8.540;2024-03-07T06:38:34;34.03;;;22.23;;
49366;SDS011;35245;52.026;8.540;2024-03-07T06:41:01;34.28;;;20.98;;
49366;SDS011;35245;52.026;8.540;2024-03-07T06:43:28;35.08;;;22.08;;
49366;SDS011;35245;52.026;8.540;2024-03-07T06:45:55;34.05;;;21.23;;
49366;SDS011;35245;52.026;8.540;2024-03-07T06:48:22;34.20;;;22.63;;
49366;SDS011;35245;52.026;8.540;2024-03-07T06:50:49;35.50;;;22.60;;
49366;SDS011;35245;52.026;8.540;2024-03-07T06:53:19;35.53;;;22.20;;
49366;SDS011;35245;52.026;8.540;2024-03-07T06:55:51;31.45;;;21.65;;
49366;SDS011;35245;52.026;8.540;2024-03-07T06:58:18;35.35;;;22.13;;
49366;SDS011;35245;52.026;8.540;2024-03-07T07:00:46;31.80;;;21.50;;
49366;SDS011;35245;52.026;8.540;2024-03-07T07:03:13;34.17;;;22.15;;
49366;SDS011;35245;52.026;8.540;2024-03-07T07:05:40;28.15;;;21.23;;
49366;SDS011;35245;52.026;8.540;2024-03-07T07:08:07;26.80;;;19.30;;
49366;SDS011;35245;52.026;8.540;2024-03-07T07:10:36;29.85;;;21.13;;
49366;SDS011;35245;52.026;8.540;2024-03-07T07:13:05;30.00;;;21.20;;
49366;SDS011;35245;52.026;8.540;2024-03-07T07:15:32;32.08;;;21.65;;
49366;SDS011;35245;52.026;8.540;2024-03-07T07:18:02;31.45;;;22.08;;
49366;SDS011;35245;52.026;8.540;2024-03-07T07:20:31;34.15;;;20.92;;
49366;SDS011;35245;52.026;8.540;2024-03-07T07:22:59;34.80;;;22.98;;
49366;SDS011;35245;52.026;8.540;2024-03-07T07:25:28;30.65;;;20.80;;
49366;SDS011;35245;52.026;8.540;2024-03-07T07:27:57;35.08;;;21.42;;
49366;SDS011;35245;52.026;8.540;2024-03-07T07:30:25;28.23;;;19.92;;
49366;SDS011;35245;52.026;8.540;2024-03-07T07:32:52;34.75;;;20.58;;
49366;SDS011;35245;52.026;8.540;2024-03-07T07:35:20;33.05;;;22.05;;
49366;SDS011;35245;52.026;8.540;2024-03-07T07:37:48;29.20;;;19.77;;
49366;SDS011;35245;52.026;8.540;2024-03-07T07:40:19;28.98;;;20.02;;
49366;SDS011;35245;52.026;8.540;2024-03-07T07:42:48;27.73;;;19.45;;
49366;SDS011;35245;52.026;8.540;2024-03-07T07:45:18;28.25;;;20.02;;
49366;SDS011;35245;52.026;8.540;2024-03-07T07:47:47;28.60;;;18.63;;
49366;SDS011;35245;52.026;8.540;2024-03-07T07:50:17;27.45;;;18.73;;
49366;SDS011;35245;52.026;8.540;2024-03-07T07:52:46;33.28;;;18.70;;
49366;SDS011;35245;52.026;8.540;2024-03-07T07:55:15;28.13;;;19.23;;
49366;SDS011;35245;52.026;8.540;2024-03-07T07:57:43;29.15;;;19.52;;
49366;SDS011;35245;52.026;8.540;2024-03-07T08:00:12;26.65;;;17.25;;
49366;SDS011;35245;52.026;8.540;2024-03-07T08:02:49;25.30;;;17.58;;
49366;SDS011;35245;52.026;8.540;2024-03-07T08:05:20;27.13;;;18.17;;
49366;SDS011;35245;52.026;8.540;2024-03-07T08:07:49;30.05;;;19.75;;
49366;SDS011;35245;52.026;8.540;2024-03-07T08:10:17;30.77;;;19.33;;
49366;SDS011;35245;52.026;8.540;2024-03-07T08:12:45;26.75;;;18.15;;
49366;SDS011;35245;52.026;8.540;2024-03-07T08:15:13;26.65;;;19.10;;
49366;SDS011;35245;52.026;8.540;2024-03-07T08:17:41;32.35;;;20.13;;
49366;SDS011;35245;52.026;8.540;2024-03-07T08:20:11;27.67;;;18.48;;
49366;SDS011;35245;52.026;8.540;2024-03-07T08:22:40;28.38;;;19.13;;
49366;SDS011;35245;52.026;8.540;2024-03-07T08:25:09;25.88;;;18.95;;
49366;SDS011;35245;52.026;8.540;2024-03-07T08:27:38;30.98;;;21.15;;
49366;SDS011;35245;52.026;8.540;2024-03-07T08:30:07;27.38;;;19.50;;
49366;SDS011;35245;52.026;8.540;2024-03-07T08:32:38;28.05;;;19.58;;
49366;SDS011;35245;52.026;8.540;2024-03-07T08:35:06;29.88;;;20.67;;
49366;SDS011;35245;52.026;8.540;2024-03-07T08:37:37;28.38;;;19.80;;
49366;SDS011;35245;52.026;8.540;2024-03-07T08:40:05;36.38;;;21.13;;
49366;SDS011;35245;52.026;8.540;2024-03-07T08:42:35;33.13;;;21.55;;
49366;SDS011;35245;52.026;8.540;2024-03-07T08:45:03;34.47;;;21.77;;
49366;SDS011;35245;52.026;8.540;2024-03-07T08:47:32;37.38;;;21.65;;
49366;SDS011;35245;52.026;8.540;2024-03-07T08:50:00;32.05;;;21.27;;
49366;SDS011;35245;52.026;8.540;2024-03-07T08:52:31;29.53;;;20.43;;
49366;SDS011;35245;52.026;8.540;2024-03-07T08:54:59;32.25;;;21.67;;
49366;SDS011;35245;52.026;8.540;2024-03-07T08:57:26;32.85;;;22.05;;
49366;SDS011;35245;52.026;8.540;2024-03-07T08:59:53;32.08;;;20.70;;
49366;SDS011;35245;52.026;8.540;2024-03-07T09:02:21;32.08;;;21.20;;
49366;SDS011;35245;52.026;8.540;2024-03-07T09:04:48;35.35;;;22.88;;
49366;SDS011;35245;52.026;8.540;2024-03-07T09:07:15;33.47;;;21.92;;
49366;SDS011;35245;52.026;8.540;2024-03-07T09:09:43;33.67;;;23.25;;
49366;SDS011;35245;52.026;8.540;2024-03-07T09:12:12;30.60;;;21.05;;
49366;SDS011;35245;52.026;8.540;2024-03-07T09:14:39;34.60;;;23.15;;
49366;SDS011;35245;52.026;8.540;2024-03-07T09:17:06;34.15;;;21.92;;
49366;SDS011;35245;52.026;8.540;2024-03-07T09:19:33;45.97;;;27.60;;
49366;SDS011;35245;52.026;8.540;2024-03-07T09:22:00;35.28;;;22.38;;
49366;SDS011;35245;52.026;8.540;2024-03-07T09:24:28;35.63;;;23.02;;
49366;SDS011;35245;52.026;8.540;2024-03-07T09:26:57;35.83;;;23.20;;
49366;SDS011;35245;52.026;8.540;2024-03-07T09:29:27;37.00;;;22.15;;
49366;SDS011;35245;52.026;8.540;2024-03-07T09:31:54;36.77;;;22.87;;
49366;SDS011;35245;52.026;8.540;2024-03-07T09:34:23;36.85;;;22.38;;
49366;SDS011;35245;52.026;8.540;2024-03-07T09:36:51;40.92;;;23.45;;
49366;SDS011;35245;52.026;8.540;2024-03-07T09:39:19;37.72;;;23.45;;
49366;SDS011;35245;52.026;8.540;2024-03-07T09:41:46;37.42;;;23.00;;
49366;SDS011;35245;52.026;8.540;2024-03-07T09:44:16;38.58;;;23.17;;
49366;SDS011;35245;52.026;8.540;2024-03-07T09:46:49;36.63;;;23.63;;
49366;SDS011;35245;52.026;8.540;2024-03-07T09:49:18;38.90;;;24.80;;
49366;SDS011;35245;52.026;8.540;2024-03-07T09:51:46;45.58;;;25.17;;
49366;SDS011;35245;52.026;8.540;2024-03-07T09:54:19;43.88;;;24.10;;
49366;SDS011;35245;52.026;8.540;2024-03-07T09:56:48;38.65;;;25.27;;
49366;SDS011;35245;52.026;8.540;2024-03-07T09:59:16;40.75;;;25.30;;
49366;SDS011;35245;52.026;8.540;2024-03-07T10:01:47;40.50;;;26.27;;
49366;SDS011;35245;52.026;8.540;2024-03-07T10:04:18;44.75;;;26.15;;
49366;SDS011;35245;52.026;8.540;2024-03-07T10:06:55;44.60;;;25.92;;
49366;SDS011;35245;52.026;8.540;2024-03-07T10:09:22;46.78;;;24.80;;
49366;SDS011;35245;52.026;8.540;2024-03-07T10:11:55;46.13;;;25.55;;
49366;SDS011;35245;52.026;8.540;2024-03-07T10:14:23;45.00;;;26.58;;
49366;SDS011;35245;52.026;8.540;2024-03-07T10:16:51;44.75;;;25.85;;
49366;SDS011;35245;52.026;8.540;2024-03-07T10:19:21;46.70;;;26.30;;
49366;SDS011;35245;52.026;8.540;2024-03-07T10:21:49;51.15;;;27.63;;
49366;SDS011;35245;52.026;8.540;2024-03-07T10:24:17;47.92;;;27.63;;
49366;SDS011;35245;52.026;8.540;2024-03-07T10:26:50;54.85;;;29.58;;
49366;SDS011;35245;52.026;8.540;2024-03-07T10:29:17;53.20;;;28.73;;
49366;SDS011;35245;52.026;8.540;2024-03-07T10:31:44;55.17;;;29.50;;
49366;SDS011;35245;52.026;8.540;2024-03-07T10:34:15;52.83;;;28.42;;
49366;SDS011;35245;52.026;8.540;2024-03-07T10:36:43;53.28;;;27.92;;
49366;SDS011;35245;52.026;8.540;2024-03-07T10:39:10;55.17;;;28.88;;
49366;SDS011;35245;52.026;8.540;2024-03-07T10:41:41;48.20;;;26.52;;
49366;SDS011;35245;52.026;8.540;2024-03-07T10:44:15;50.33;;;27.40;;
49366;SDS011;35245;52.026;8.540;2024-03-07T10:46:51;50.40;;;28.05;;
49366;SDS011;35245;52.026;8.540;2024-03-07T10:49:21;53.80;;;27.02;;
49366;SDS011;35245;52.026;8.540;2024-03-07T10:51:57;49.10;;;27.83;;
49366;SDS011;35245;52.026;8.540;2024-03-07T10:54:34;49.35;;;27.77;;
49366;SDS011;35245;52.026;8.540;2024-03-07T10:57:20;57.28;;;29.17;;
49366;SDS011;35245;52.026;8.540;2024-03-07T10:59:57;56.97;;;30.45;;
49366;SDS011;35245;52.026;8.540;2024-03-07T11:05:19;49.22;;;27.10;;
49366;SDS011;35245;52.026;8.540;2024-03-07T11:07:49;51.28;;;27.90;;
49366;SDS011;35245;52.026;8.540;2024-03-07T11:10:18;48.72;;;27.67;;
49366;SDS011;35245;52.026;8.540;2024-03-07T11:12:46;48.50;;;26.73;;
49366;SDS011;35245;52.026;8.540;2024-03-07T11:15:16;46.83;;;26.15;;
49366;SDS011;35245;52.026;8.540;2024-03-07T11:17:45;48.22;;;27.40;;
49366;SDS011;35245;52.026;8.540;2024-03-07T11:20:20;45.45;;;26.92;;
49366;SDS011;35245;52.026;8.540;2024-03-07T11:22:48;50.58;;;27.45;;
49366;SDS011;35245;52.026;8.540;2024-03-07T11:25:19;52.63;;;27.00;;
49366;SDS011;35245;52.026;8.540;2024-03-07T11:27:50;51.30;;;26.13;;
49366;SDS011;35245;52.026;8.540;2024-03-07T11:30:19;47.85;;;26.58;;
49366;SDS011;35245;52.026;8.540;2024-03-07T11:32:47;50.92;;;27.42;;
49366;SDS011;35245;52.026;8.540;2024-03-07T11:35:18;45.40;;;25.15;;
49366;SDS011;35245;52.026;8.540;2024-03-07T11:37:55;47.45;;;25.30;;
49366;SDS011;35245;52.026;8.540;2024-03-07T11:43:11;47.20;;;24.65;;
49366;SDS011;35245;52.026;8.540;2024-03-07T11:45:38;47.30;;;25.25;;
49366;SDS011;35245;52.026;8.540;2024-03-07T11:48:09;46.42;;;25.58;;
49366;SDS011;35245;52.026;8.540;2024-03-07T11:50:39;45.72;;;25.42;;
49366;SDS011;35245;52.026;8.540;2024-03-07T11:53:08;49.70;;;25.10;;
49366;SDS011;35245;52.026;8.540;2024-03-07T11:55:36;49.10;;;25.25;;
49366;SDS011;35245;52.026;8.540;2024-03-07T11:58:09;45.35;;;23.42;;
49366;SDS011;35245;52.026;8.540;2024-03-07T12:00:39;42.10;;;24.08;;
49366;SDS011;35245;52.026;8.540;2024-03-07T12:03:10;40.72;;;24.23;;
49366;SDS011;35245;52.026;8.540;2024-03-07T12:05:40;39.53;;;22.38;;
49366;SDS011;35245;52.026;8.540;2024-03-07T12:08:08;35.00;;;19.80;;
49366;SDS011;35245;52.026;8.540;2024-03-07T12:10:36;34.30;;;19.63;;
49366;SDS011;35245;52.026;8.540;2024-03-07T12:13:05;36.13;;;19.85;;
49366;SDS011;35245;52.026;8.540;2024-03-07T12:15:33;38.35;;;20.83;;
49366;SDS011;35245;52.026;8.540;2024-03-07T12:18:01;38.60;;;20.10;;
49366;SDS011;35245;52.026;8.540;2024-03-07T12:20:34;35.55;;;19.48;;
49366;SDS011;35245;52.026;8.540;2024-03-07T12:23:07;34.95;;;19.83;;
49366;SDS011;35245;52.026;8.540;2024-03-07T12:25:37;33.20;;;19.73;;
49366;SDS011;35245;52.026;8.540;2024-03-07T12:28:05;38.30;;;20.83;;
49366;SDS011;35245;52.026;8.540;2024-03-07T12:30:36;38.33;;;22.15;;
49366;SDS011;35245;52.026;8.540;2024-03-07T12:33:16;38.08;;;20.38;;
49366;SDS011;35245;52.026;8.540;2024-03-07T12:35:44;41.90;;;21.42;;
49366;SDS011;35245;52.026;8.540;2024-03-07T12:38:16;42.47;;;21.48;;
49366;SDS011;35245;52.026;8.540;2024-03-07T12:40:43;38.97;;;21.00;;
49366;SDS011;35245;52.026;8.540;2024-03-07T12:43:12;33.97;;;20.90;;
49366;SDS011;35245;52.026;8.540;2024-03-07T12:45:47;39.22;;;21.23;;
49366;SDS011;35245;52.026;8.540;2024-03-07T12:48:15;36.58;;;21.52;;
49366;SDS011;35245;52.026;8.540;2024-03-07T12:50:45;38.70;;;22.33;;
49366;SDS011;35245;52.026;8.540;2024-03-07T12:53:17;41.17;;;22.98;;
49366;SDS011;35245;52.026;8.540;2024-03-07T12:55:44;36.08;;;21.67;;
49366;SDS011;35245;52.026;8.540;2024-03-07T12:58:11;38.65;;;23.10;;
49366;SDS011;35245;52.026;8.540;2024-03-07T13:00:40;44.97;;;22.50;;
49366;SDS011;35245;52.026;8.540;2024-03-07T13:03:08;38.70;;;22.02;;
49366;SDS011;35245;52.026;8.540;2024-03-07T13:05:38;34.42;;;20.35;;
49366;SDS011;35245;52.026;8.540;2024-03-07T13:08:07;37.35;;;20.70;;
49366;SDS011;35245;52.026;8.540;2024-03-07T13:10:38;33.13;;;19.83;;
49366;SDS011;35245;52.026;8.540;2024-03-07T13:13:05;34.97;;;21.10;;
49366;SDS011;35245;52.026;8.540;2024-03-07T13:15:34;38.22;;;22.90;;
49366;SDS011;35245;52.026;8.540;2024-03-07T13:18:04;37.05;;;20.15;;
49366;SDS011;35245;52.026;8.540;2024-03-07T13:20:32;44.83;;;23.83;;
49366;SDS011;35245;52.026;8.540;2024-03-07T13:22:59;42.88;;;23.35;;
49366;SDS011;35245;52.026;8.540;2024-03-07T13:25:27;39.58;;;20.80;;
49366;SDS011;35245;52.026;8.540;2024-03-07T13:28:00;44.67;;;22.70;;
49366;SDS011;35245;52.026;8.540;2024-03-07T13:30:32;45.95;;;24.38;;
49366;SDS011;35245;52.026;8.540;2024-03-07T13:33:01;37.75;;;21.20;;
49366;SDS011;35245;52.026;8.540;2024-03-07T13:35:29;42.75;;;21.95;;
49366;SDS011;35245;52.026;8.540;2024-03-07T13:37:56;35.97;;;21.70;;
49366;SDS011;35245;52.026;8.540;2024-03-07T13:40:24;41.08;;;22.40;;
49366;SDS011;35245;52.026;8.540;2024-03-07T13:42:53;40.03;;;21.35;;
49366;SDS011;35245;52.026;8.540;2024-03-07T13:45:23;41.47;;;21.80;;
49366;SDS011;35245;52.026;8.540;2024-03-07T13:47:52;40.42;;;20.77;;
49366;SDS011;35245;52.026;8.540;2024-03-07T13:50:22;38.38;;;21.15;;
49366;SDS011;35245;52.026;8.540;2024-03-07T13:52:51;44.72;;;22.23;;
49366;SDS011;35245;52.026;8.540;2024-03-07T13:55:40;41.55;;;22.48;;
49366;SDS011;35245;52.026;8.540;2024-03-07T13:58:34;38.95;;;21.73;;
49366;SDS011;35245;52.026;8.540;2024-03-07T14:01:20;38.92;;;20.77;;
49366;SDS011;35245;52.026;8.540;2024-03-07T14:04:22;40.58;;;22.67;;
49366;SDS011;35245;52.026;8.540;2024-03-07T14:07:19;40.33;;;22.38;;
49366;SDS011;35245;52.026;8.540;2024-03-07T14:10:17;46.08;;;22.63;;
49366;SDS011;35245;52.026;8.540;2024-03-07T14:13:23;40.22;;;21.55;;
49366;SDS011;35245;52.026;8.540;2024-03-07T14:16:21;43.72;;;23.38;;
49366;SDS011;35245;52.026;8.540;2024-03-07T14:19:59;46.63;;;22.52;;
49366;SDS011;35245;52.026;8.540;2024-03-07T14:25:47;46.30;;;22.60;;
49366;SDS011;35245;52.026;8.540;2024-03-07T14:31:40;35.40;;;19.63;;
49366;SDS011;35245;52.026;8.540;2024-03-07T14:34:14;39.38;;;20.35;;
49366;SDS011;35245;52.026;8.540;2024-03-07T14:36:56;41.90;;;20.88;;
49366;SDS011;35245;52.026;8.540;2024-03-07T14:39:35;35.63;;;20.25;;
49366;SDS011;35245;52.026;8.540;2024-03-07T14:42:05;40.00;;;22.60;;
49366;SDS011;35245;52.026;8.540;2024-03-07T14:44:35;37.10;;;20.80;;
49366;SDS011;35245;52.026;8.540;2024-03-07T14:47:06;46.28;;;21.83;;
49366;SDS011;35245;52.026;8.540;2024-03-07T14:49:36;36.55;;;20.17;;